Fair River, Mississippi
Current Conditions -  °F | °C
As of 12:35 AM on Saturday 01 Nov 2014 (Local Time) from K1R7 Reporting Station
Clear Clear  
Wind Chill: 44°   Ceiling: Unl
Heat Index: 48°   Visibility: 10mi
Dew Point: 36°   Wind: 9mph
Humidity: 62%   Direction: 360°N
Pressure: 30.28"   Gusts: 18mph
Location:  31.5898°N, 90.4722°W
Report Text: K1R7 010535Z AUTO 36008G16KT 10SM CLR 09/02 A3028 RMK AO2
Loading
Personal Weather Stations






























Interactive Weather Map
Tropical Storm Tracking
New forecast layout! Learn more

10-Day Weather Forecast

Advertisements
Track Severe Weather on mobile